createdAt,value
2022-08-30T00:01:13.592Z,14.61
2022-08-30T00:03:46.784Z,14.60
2022-08-30T00:06:16.104Z,14.56
2022-08-30T00:08:43.697Z,14.55
2022-08-30T00:11:14.124Z,14.53
2022-08-30T00:13:42.835Z,14.46
2022-08-30T00:16:09.421Z,14.52
2022-08-30T00:18:36.708Z,14.49
2022-08-30T00:21:03.692Z,14.48
2022-08-30T00:23:30.115Z,14.41
2022-08-30T00:25:56.455Z,14.48
2022-08-30T00:28:22.797Z,14.41
2022-08-30T00:30:49.796Z,14.46
2022-08-30T00:33:16.586Z,14.43
2022-08-30T00:35:43.121Z,14.42
2022-08-30T00:38:12.014Z,14.41
2022-08-30T00:40:39.820Z,14.38
2022-08-30T00:43:10.172Z,14.34
2022-08-30T00:45:40.789Z,14.23
2022-08-30T00:48:07.962Z,14.22
2022-08-30T00:50:38.913Z,14.24
2022-08-30T00:53:09.354Z,14.21
2022-08-30T00:55:38.852Z,14.11
2022-08-30T00:58:08.458Z,14.11
2022-08-30T01:00:35.525Z,14.06
2022-08-30T01:03:01.951Z,14.02
2022-08-30T01:05:28.475Z,13.96
2022-08-30T01:07:54.864Z,13.87
2022-08-30T01:10:21.635Z,13.88
2022-08-30T01:12:48.025Z,13.80
2022-08-30T01:15:15.756Z,13.82
2022-08-30T01:17:45.032Z,13.74
2022-08-30T01:20:15.740Z,13.71
2022-08-30T01:22:51.200Z,13.69
2022-08-30T01:25:24.910Z,13.66
2022-08-30T01:27:58.423Z,13.69
2022-08-30T01:30:25.003Z,13.65
2022-08-30T01:32:58.323Z,13.61
2022-08-30T01:35:25.956Z,13.55
2022-08-30T01:37:52.306Z,13.53
2022-08-30T01:40:19.226Z,13.46
2022-08-30T01:42:45.858Z,13.46
2022-08-30T01:45:13.158Z,13.42
2022-08-30T01:47:39.901Z,13.36
2022-08-30T01:50:07.681Z,13.27
2022-08-30T01:52:34.124Z,13.16
2022-08-30T01:55:00.564Z,13.08
2022-08-30T01:57:26.912Z,13.04
2022-08-30T01:59:53.489Z,12.96
2022-08-30T02:02:23.009Z,12.89
2022-08-30T02:04:50.053Z,12.84
2022-08-30T02:07:17.003Z,12.73
2022-08-30T02:09:43.901Z,12.70
2022-08-30T02:12:12.716Z,12.72
2022-08-30T02:14:39.336Z,12.65
2022-08-30T02:17:08.214Z,12.64
2022-08-30T02:19:34.701Z,12.57
2022-08-30T02:22:01.273Z,12.47
2022-08-30T02:24:27.758Z,12.53
2022-08-30T02:26:54.433Z,12.51
2022-08-30T02:29:22.432Z,12.49
2022-08-30T02:31:49.002Z,12.43
2022-08-30T02:34:16.392Z,12.44
2022-08-30T02:36:43.632Z,12.40
2022-08-30T02:39:11.275Z,12.44
2022-08-30T02:41:38.407Z,12.36
2022-08-30T02:44:06.014Z,12.45
2022-08-30T02:46:34.661Z,12.44
2022-08-30T02:49:13.011Z,12.40
2022-08-30T02:51:49.092Z,12.48
2022-08-30T02:54:15.686Z,12.48
2022-08-30T02:56:42.020Z,12.45
2022-08-30T02:59:08.429Z,12.52
2022-08-30T03:01:34.870Z,12.53
2022-08-30T03:04:01.602Z,12.48
2022-08-30T03:06:28.011Z,12.55
2022-08-30T03:08:54.385Z,12.57
2022-08-30T03:11:20.733Z,12.59
2022-08-30T03:13:47.069Z,12.62
2022-08-30T03:16:13.477Z,12.65
2022-08-30T03:18:39.892Z,12.66
2022-08-30T03:21:10.988Z,12.68
2022-08-30T03:23:37.346Z,12.71
2022-08-30T03:26:03.888Z,12.72
2022-08-30T03:28:30.235Z,12.66
2022-08-30T03:30:56.565Z,12.73
2022-08-30T03:33:22.910Z,12.71
2022-08-30T03:35:49.383Z,12.74
2022-08-30T03:38:16.443Z,12.69
2022-08-30T03:40:43.139Z,12.72
2022-08-30T03:43:09.516Z,12.73
2022-08-30T03:45:35.914Z,12.67
2022-08-30T03:48:02.892Z,12.73
2022-08-30T03:50:29.985Z,12.66
2022-08-30T03:52:57.115Z,12.64
2022-08-30T03:55:23.700Z,12.71
2022-08-30T03:57:50.110Z,12.65
2022-08-30T04:00:18.644Z,12.68
2022-08-30T04:02:44.989Z,12.69
2022-08-30T04:05:12.422Z,12.68
2022-08-30T04:07:42.030Z,12.66
2022-08-30T04:10:09.396Z,12.64
2022-08-30T04:12:37.252Z,12.63
2022-08-30T04:15:05.170Z,12.60
2022-08-30T04:17:31.533Z,12.53
2022-08-30T04:19:57.912Z,12.56
2022-08-30T04:22:24.310Z,12.55
2022-08-30T04:24:50.665Z,12.54
2022-08-30T04:27:17.095Z,12.53
2022-08-30T04:29:43.429Z,12.44
2022-08-30T04:32:09.820Z,12.47
2022-08-30T04:34:36.192Z,12.47
2022-08-30T04:37:02.544Z,12.44
2022-08-30T04:39:30.582Z,12.36
2022-08-30T04:41:58.362Z,12.40
2022-08-30T04:44:24.701Z,12.33
2022-08-30T04:46:51.052Z,12.34
2022-08-30T04:49:17.577Z,12.25
2022-08-30T04:51:44.473Z,12.31
2022-08-30T04:54:10.985Z,12.31
2022-08-30T04:56:37.340Z,12.30
2022-08-30T04:59:03.942Z,12.35
2022-08-30T05:01:31.883Z,12.38
2022-08-30T05:04:03.408Z,12.42
2022-08-30T05:06:30.167Z,12.45
2022-08-30T05:08:56.851Z,12.48
2022-08-30T05:11:23.190Z,12.53
2022-08-30T05:13:49.665Z,12.58
2022-08-30T05:16:16.156Z,12.58
2022-08-30T05:18:42.515Z,12.70
2022-08-30T05:21:35.285Z,12.80
2022-08-30T05:24:01.797Z,12.81
2022-08-30T05:26:32.151Z,13.00
2022-08-30T05:28:58.980Z,13.22
2022-08-30T05:31:28.272Z,13.64
2022-08-30T05:33:55.579Z,14.19
2022-08-30T05:36:25.484Z,14.79
2022-08-30T05:38:52.520Z,15.32
2022-08-30T05:41:20.417Z,15.94
2022-08-30T05:43:47.000Z,16.51
2022-08-30T05:46:15.245Z,17.21
2022-08-30T05:48:41.620Z,17.75
2022-08-30T05:51:12.350Z,18.43
2022-08-30T05:53:39.193Z,19.02
2022-08-30T05:56:08.604Z,19.57
2022-08-30T05:58:35.290Z,20.18
2022-08-30T06:01:01.949Z,20.86
2022-08-30T06:03:28.780Z,21.37
2022-08-30T06:05:55.184Z,21.69
2022-08-30T06:08:22.101Z,22.06
2022-08-30T06:10:48.660Z,22.52
2022-08-30T06:13:15.073Z,22.73
2022-08-30T06:15:42.160Z,23.06
2022-08-30T06:18:08.509Z,23.35
2022-08-30T06:20:40.191Z,23.82
2022-08-30T06:23:06.552Z,24.28
2022-08-30T06:25:41.107Z,24.81
2022-08-30T06:28:09.110Z,25.33
2022-08-30T06:30:35.643Z,25.90
2022-08-30T06:33:02.578Z,26.31
2022-08-30T06:35:30.692Z,26.82
2022-08-30T06:37:59.171Z,27.26
2022-08-30T06:40:25.569Z,27.81
2022-08-30T06:42:51.996Z,28.22
2022-08-30T06:45:18.993Z,28.50
2022-08-30T06:47:45.324Z,28.54
2022-08-30T06:50:13.146Z,28.73
2022-08-30T06:52:44.704Z,28.74
2022-08-30T06:55:12.253Z,28.91
2022-08-30T06:57:38.758Z,29.14
2022-08-30T07:00:08.796Z,28.98
2022-08-30T07:02:37.533Z,28.98
2022-08-30T07:05:04.789Z,29.15
2022-08-30T07:07:31.144Z,29.20
2022-08-30T07:09:57.561Z,29.37
2022-08-30T07:12:23.881Z,29.42
2022-08-30T07:14:50.476Z,29.63
2022-08-30T07:17:16.846Z,29.80
2022-08-30T07:19:43.174Z,30.14
2022-08-30T07:22:09.529Z,30.37
2022-08-30T07:24:35.903Z,30.60
2022-08-30T07:27:02.233Z,30.52
2022-08-30T07:29:28.605Z,30.18
2022-08-30T07:31:54.949Z,30.30
2022-08-30T07:34:22.401Z,30.28
2022-08-30T07:36:50.921Z,29.88
2022-08-30T07:39:17.390Z,29.86
2022-08-30T07:41:43.780Z,29.61
2022-08-30T07:44:11.074Z,29.51
2022-08-30T07:46:38.922Z,29.38
2022-08-30T07:49:10.847Z,29.23
2022-08-30T07:51:38.704Z,29.13
2022-08-30T07:54:05.216Z,28.69
2022-08-30T07:56:31.568Z,28.87
2022-08-30T07:58:57.898Z,29.27
2022-08-30T08:01:24.361Z,29.49
2022-08-30T08:03:50.943Z,29.80
2022-08-30T08:06:19.636Z,29.46
2022-08-30T08:08:46.377Z,29.67
2022-08-30T08:11:16.289Z,29.78
2022-08-30T08:13:53.269Z,29.43
2022-08-30T08:16:23.059Z,29.73
2022-08-30T08:18:49.628Z,30.04
2022-08-30T08:21:16.095Z,30.12
2022-08-30T08:23:42.446Z,30.12
2022-08-30T08:26:08.796Z,29.94
2022-08-30T08:28:35.176Z,29.73
2022-08-30T08:31:01.658Z,29.32
2022-08-30T08:33:28.137Z,29.27
2022-08-30T08:35:54.508Z,29.03
2022-08-30T08:38:20.844Z,29.23
2022-08-30T08:41:03.337Z,29.11
2022-08-30T08:43:34.205Z,29.10
2022-08-30T08:46:04.569Z,28.74
2022-08-30T08:48:58.998Z,28.92
2022-08-30T08:51:30.522Z,29.08
2022-08-30T08:54:04.574Z,29.41
2022-08-30T08:56:32.556Z,29.43
2022-08-30T08:58:58.976Z,29.26
2022-08-30T09:01:28.405Z,28.82
2022-08-30T09:03:57.185Z,28.35
2022-08-30T09:06:45.001Z,28.10
2022-08-30T09:09:13.004Z,28.37
2022-08-30T09:11:40.592Z,28.69
2022-08-30T09:14:13.921Z,28.81
2022-08-30T09:17:02.669Z,28.80
2022-08-30T09:19:34.599Z,28.46
2022-08-30T09:22:25.863Z,28.00
2022-08-30T09:25:00.686Z,28.09
2022-08-30T09:27:38.040Z,27.98
2022-08-30T09:30:11.215Z,27.98
2022-08-30T09:32:44.269Z,27.94
2022-08-30T09:35:17.298Z,27.68
2022-08-30T09:37:56.698Z,27.88
2022-08-30T09:40:41.822Z,27.75
2022-08-30T09:43:17.447Z,27.73
2022-08-30T09:45:47.674Z,27.74
2022-08-30T09:48:31.972Z,27.82
2022-08-30T09:51:11.053Z,27.98
2022-08-30T09:54:01.053Z,27.84
2022-08-30T09:56:48.781Z,27.15
2022-08-30T09:59:37.009Z,26.69
2022-08-30T10:02:24.140Z,26.35
2022-08-30T10:05:04.462Z,26.19
2022-08-30T10:07:42.333Z,26.17
2022-08-30T10:10:31.624Z,26.09
2022-08-30T10:13:20.453Z,26.17
2022-08-30T10:15:55.401Z,26.42
2022-08-30T10:18:37.000Z,26.35
2022-08-30T10:21:19.398Z,26.44
2022-08-30T10:23:56.470Z,26.40
2022-08-30T10:26:35.065Z,26.45
2022-08-30T10:29:11.202Z,26.63
2022-08-30T10:31:56.426Z,26.56
2022-08-30T10:34:36.249Z,26.75
2022-08-30T10:37:17.711Z,26.80
2022-08-30T10:39:51.337Z,26.46
2022-08-30T10:42:19.945Z,26.25
2022-08-30T10:44:51.136Z,26.05
2022-08-30T10:47:27.413Z,25.97
2022-08-30T10:50:06.812Z,26.04
2022-08-30T10:52:46.922Z,26.18
2022-08-30T10:55:19.611Z,26.15
2022-08-30T10:57:46.351Z,26.14
2022-08-30T11:00:26.240Z,26.32
2022-08-30T11:03:11.002Z,26.44
2022-08-30T11:06:11.430Z,26.18
2022-08-30T11:08:51.977Z,26.00
2022-08-30T11:11:41.308Z,26.31
2022-08-30T11:14:11.656Z,26.40
2022-08-30T11:16:48.443Z,26.58
2022-08-30T11:19:23.348Z,26.67
2022-08-30T11:21:52.898Z,26.77
2022-08-30T11:24:24.094Z,26.87
2022-08-30T11:26:57.643Z,26.83
2022-08-30T11:29:26.861Z,26.66
2022-08-30T11:31:56.062Z,26.61
2022-08-30T11:34:47.391Z,26.82
2022-08-30T11:37:13.678Z,26.99
2022-08-30T11:39:39.966Z,26.99
2022-08-30T11:42:12.551Z,27.01
2022-08-30T11:44:40.510Z,26.77
2022-08-30T11:47:39.421Z,26.78
2022-08-30T11:50:16.617Z,26.54
2022-08-30T11:53:23.141Z,26.63
2022-08-30T11:56:35.473Z,26.81
2022-08-30T11:59:09.852Z,26.89
2022-08-30T12:01:51.203Z,26.96
2022-08-30T12:04:18.668Z,27.17
2022-08-30T12:06:44.957Z,27.43
2022-08-30T12:09:39.096Z,27.61
2022-08-30T12:12:07.363Z,27.58
2022-08-30T12:14:51.948Z,27.62
2022-08-30T12:17:29.609Z,27.57
2022-08-30T12:20:00.257Z,27.63
2022-08-30T12:22:26.908Z,27.45
2022-08-30T12:24:54.593Z,27.41
2022-08-30T12:27:33.142Z,27.32
2022-08-30T12:30:04.258Z,27.21
2022-08-30T12:32:31.340Z,27.19
2022-08-30T12:35:00.898Z,27.32
2022-08-30T12:37:30.577Z,27.36
2022-08-30T12:40:11.868Z,27.31
2022-08-30T12:42:42.821Z,27.25
2022-08-30T12:45:15.902Z,27.32
2022-08-30T12:47:52.577Z,27.43
2022-08-30T12:50:29.033Z,27.00
2022-08-30T12:53:02.833Z,26.82
2022-08-30T12:55:34.452Z,26.80
2022-08-30T12:58:08.312Z,26.92
2022-08-30T13:00:36.122Z,27.01
2022-08-30T13:03:16.213Z,27.15
2022-08-30T13:05:48.371Z,27.38
2022-08-30T13:08:23.531Z,27.51
2022-08-30T13:11:08.010Z,27.64
2022-08-30T13:13:52.029Z,27.63
2022-08-30T13:16:19.082Z,27.51
2022-08-30T13:18:46.962Z,27.38
2022-08-30T13:21:27.209Z,27.37
2022-08-30T13:24:03.374Z,27.41
2022-08-30T13:26:37.579Z,27.39
2022-08-30T13:29:08.704Z,27.45
2022-08-30T13:31:37.259Z,27.49
2022-08-30T13:34:03.677Z,27.53
2022-08-30T13:36:33.028Z,27.39
2022-08-30T13:39:01.384Z,27.15
2022-08-30T13:41:30.220Z,27.00
2022-08-30T13:44:16.263Z,26.77
2022-08-30T13:46:53.511Z,26.48
2022-08-30T13:52:22.840Z,26.57
2022-08-30T13:54:51.011Z,26.66
2022-08-30T13:57:53.363Z,26.79
2022-08-30T14:00:12.364Z,26.87
2022-08-30T14:02:44.367Z,26.97
2022-08-30T14:05:37.504Z,27.13
2022-08-30T14:08:01.467Z,27.24
2022-08-30T14:10:31.165Z,27.32
2022-08-30T14:13:07.826Z,27.24
2022-08-30T14:15:35.525Z,27.13
2022-08-30T14:18:06.202Z,27.05
2022-08-30T14:20:32.802Z,26.80
2022-08-30T14:22:59.648Z,26.79
2022-08-30T14:25:25.974Z,26.78
2022-08-30T14:27:52.321Z,26.66
2022-08-30T14:30:21.012Z,26.65
2022-08-30T14:32:47.805Z,26.64
2022-08-30T14:35:14.813Z,26.61
2022-08-30T14:37:41.164Z,26.38
2022-08-30T14:40:08.076Z,26.29
2022-08-30T14:42:34.517Z,26.22
2022-08-30T14:45:00.887Z,26.17
2022-08-30T14:47:29.783Z,26.14
2022-08-30T14:49:56.595Z,25.89
2022-08-30T14:52:22.994Z,25.73
2022-08-30T14:54:49.327Z,25.60
2022-08-30T14:57:15.641Z,25.31
2022-08-30T14:59:42.009Z,25.35
2022-08-30T15:02:09.524Z,25.33
2022-08-30T15:04:36.170Z,25.29
2022-08-30T15:07:02.813Z,25.20
2022-08-30T15:09:30.272Z,25.17
2022-08-30T15:11:58.636Z,25.02
2022-08-30T15:14:25.592Z,24.90
2022-08-30T15:16:55.058Z,24.85
2022-08-30T15:19:21.868Z,24.96
2022-08-30T15:21:48.533Z,25.03
2022-08-30T15:24:18.880Z,25.11
2022-08-30T15:26:45.745Z,25.08
2022-08-30T15:29:14.966Z,24.90
2022-08-30T15:31:42.315Z,24.91
2022-08-30T15:34:10.981Z,24.81
2022-08-30T15:36:38.222Z,24.61
2022-08-30T15:39:05.916Z,24.65
2022-08-30T15:41:32.320Z,24.66
2022-08-30T15:43:59.344Z,24.52
2022-08-30T15:46:45.681Z,24.35
2022-08-30T15:49:15.707Z,24.29
2022-08-30T15:51:46.120Z,24.15
2022-08-30T15:54:15.108Z,24.10
2022-08-30T15:56:43.448Z,24.14
2022-08-30T15:59:11.287Z,24.06
2022-08-30T16:01:38.215Z,24.19
2022-08-30T16:04:04.715Z,24.02
2022-08-30T16:06:34.288Z,24.09
2022-08-30T16:09:01.216Z,24.07
2022-08-30T16:11:27.917Z,23.97
2022-08-30T16:13:57.583Z,23.96
2022-08-30T16:16:24.077Z,23.97
2022-08-30T16:18:53.733Z,23.94
2022-08-30T16:21:24.072Z,23.84
2022-08-30T16:23:50.438Z,23.84
2022-08-30T16:26:17.519Z,23.75
2022-08-30T16:28:45.198Z,23.77
2022-08-30T16:31:12.290Z,23.74
2022-08-30T16:33:42.586Z,23.68
2022-08-30T16:36:11.301Z,23.59
2022-08-30T16:38:38.534Z,23.53
2022-08-30T16:41:07.940Z,23.39
2022-08-30T16:43:35.624Z,23.41
2022-08-30T16:46:04.572Z,23.31
2022-08-30T16:48:33.408Z,23.24
2022-08-30T16:51:00.236Z,23.22
2022-08-30T16:53:27.273Z,23.10
2022-08-30T16:55:54.109Z,23.02
2022-08-30T16:58:22.393Z,22.99
2022-08-30T17:00:51.573Z,22.97
2022-08-30T17:03:18.678Z,22.93
2022-08-30T17:05:47.558Z,22.86
2022-08-30T17:08:16.487Z,22.81
2022-08-30T17:10:43.872Z,22.74
2022-08-30T17:13:16.674Z,22.62
2022-08-30T17:15:43.787Z,22.61
2022-08-30T17:18:10.258Z,22.55
2022-08-30T17:20:36.615Z,22.51
2022-08-30T17:23:04.073Z,22.47
2022-08-30T17:25:33.883Z,22.43
2022-08-30T17:28:00.543Z,22.38
2022-08-30T17:30:26.954Z,22.18
2022-08-30T17:32:53.295Z,22.18
2022-08-30T17:35:20.725Z,22.08
2022-08-30T17:37:48.360Z,22.03
2022-08-30T17:40:18.273Z,21.93
2022-08-30T17:42:44.635Z,21.80
2022-08-30T17:45:13.715Z,21.68
2022-08-30T17:47:40.526Z,21.66
2022-08-30T17:50:08.254Z,21.59
2022-08-30T17:52:35.650Z,21.52
2022-08-30T17:55:02.312Z,21.40
2022-08-30T17:57:29.595Z,21.22
2022-08-30T17:59:56.117Z,21.18
2022-08-30T18:02:29.855Z,21.08
2022-08-30T18:04:58.065Z,21.03
2022-08-30T18:07:25.662Z,20.91
2022-08-30T18:09:53.532Z,20.80
2022-08-30T18:12:20.391Z,20.72
2022-08-30T18:14:46.703Z,20.59
2022-08-30T18:17:19.108Z,20.50
2022-08-30T18:19:46.876Z,20.48
2022-08-30T18:22:13.945Z,20.34
2022-08-30T18:24:40.461Z,20.29
2022-08-30T18:27:07.209Z,20.08
2022-08-30T18:29:33.658Z,20.13
2022-08-30T18:32:01.850Z,20.03
2022-08-30T18:34:28.921Z,19.95
2022-08-30T18:36:55.712Z,19.88
2022-08-30T18:39:22.188Z,19.76
2022-08-30T18:41:49.092Z,19.75
2022-08-30T18:44:27.810Z,19.68
2022-08-30T18:46:56.272Z,19.57
2022-08-30T18:49:24.285Z,19.50
2022-08-30T18:51:50.688Z,19.37
2022-08-30T18:54:17.146Z,19.28
2022-08-30T18:56:45.118Z,19.06
2022-08-30T18:59:11.800Z,19.04
2022-08-30T19:01:39.017Z,18.93
2022-08-30T19:04:06.824Z,18.96
2022-08-30T19:06:34.535Z,18.84
2022-08-30T19:09:00.924Z,18.74
2022-08-30T19:11:27.731Z,18.76
2022-08-30T19:13:54.934Z,18.72
2022-08-30T19:16:21.835Z,18.68
2022-08-30T19:18:48.786Z,18.63
2022-08-30T19:21:15.175Z,18.57
2022-08-30T19:23:43.309Z,18.53
2022-08-30T19:26:10.808Z,18.49
2022-08-30T19:28:37.552Z,18.42
2022-08-30T19:31:04.077Z,18.36
2022-08-30T19:33:33.460Z,18.30
2022-08-30T19:36:00.074Z,18.25
2022-08-30T19:38:26.560Z,18.19
2022-08-30T19:41:00.511Z,18.18
2022-08-30T19:43:27.596Z,18.11
2022-08-30T19:45:59.348Z,18.13
2022-08-30T19:48:31.994Z,18.10
2022-08-30T19:50:59.756Z,18.02
2022-08-30T19:53:26.113Z,17.99
2022-08-30T19:55:52.450Z,17.97
2022-08-30T19:58:18.844Z,18.02
2022-08-30T20:03:31.673Z,17.87
2022-08-30T20:05:58.140Z,17.94
2022-08-30T20:08:25.569Z,17.94
2022-08-30T20:10:51.911Z,17.93
2022-08-30T20:13:18.696Z,17.89
2022-08-30T20:15:57.493Z,17.82
2022-08-30T20:18:25.248Z,17.78
2022-08-30T20:20:52.578Z,17.78
2022-08-30T20:23:21.518Z,17.77
2022-08-30T20:25:53.596Z,17.76
2022-08-30T20:28:20.158Z,17.73
2022-08-30T20:30:47.560Z,17.62
2022-08-30T20:33:13.952Z,17.53
2022-08-30T20:35:44.468Z,17.56
2022-08-30T20:38:14.801Z,17.54
2022-08-30T20:40:41.210Z,17.47
2022-08-30T20:43:07.571Z,17.45
2022-08-30T20:45:34.095Z,17.37
2022-08-30T20:48:00.428Z,17.34
2022-08-30T20:50:26.765Z,17.38
2022-08-30T20:52:53.130Z,17.29
2022-08-30T20:55:19.605Z,17.22
2022-08-30T20:57:45.947Z,17.25
2022-08-30T21:00:13.261Z,17.21
2022-08-30T21:02:46.555Z,17.18
2022-08-30T21:05:15.916Z,17.15
2022-08-30T21:07:44.440Z,17.10
2022-08-30T21:10:11.267Z,17.08
2022-08-30T21:12:37.639Z,17.01
2022-08-30T21:15:27.080Z,17.02
2022-08-30T21:17:51.476Z,16.84
2022-08-30T21:20:18.177Z,16.89
2022-08-30T21:22:44.510Z,16.90
2022-08-30T21:25:11.043Z,16.82
2022-08-30T21:27:37.399Z,16.86
2022-08-30T21:30:04.491Z,16.75
2022-08-30T21:32:31.148Z,16.74
2022-08-30T21:34:57.501Z,16.68
2022-08-30T21:37:23.939Z,16.66
2022-08-30T21:39:50.425Z,16.67
2022-08-30T21:42:16.897Z,16.61
2022-08-30T21:44:43.221Z,16.55
2022-08-30T21:47:09.954Z,16.55
2022-08-30T21:49:36.737Z,16.50
2022-08-30T21:52:03.625Z,16.47
2022-08-30T21:54:31.499Z,16.35
2022-08-30T21:56:59.742Z,16.47
2022-08-30T21:59:26.893Z,16.42
2022-08-30T22:01:53.267Z,16.40
2022-08-30T22:04:23.167Z,16.36
2022-08-30T22:06:52.607Z,16.34
2022-08-30T22:09:21.933Z,16.25
2022-08-30T22:11:48.860Z,16.29
2022-08-30T22:14:17.535Z,16.22
2022-08-30T22:16:43.905Z,16.21
2022-08-30T22:19:10.472Z,16.12
2022-08-30T22:21:38.406Z,16.06
2022-08-30T22:24:05.366Z,16.07
2022-08-30T22:26:33.175Z,16.02
2022-08-30T22:28:59.588Z,15.95
2022-08-30T22:31:26.467Z,15.95
2022-08-30T22:33:53.856Z,15.97
2022-08-30T22:36:32.415Z,15.86
2022-08-30T22:39:00.795Z,15.95
2022-08-30T22:41:30.559Z,15.93
2022-08-30T22:43:58.513Z,15.84
2022-08-30T22:46:33.620Z,15.85
2022-08-30T22:49:00.682Z,15.81
2022-08-30T22:51:27.036Z,15.83
2022-08-30T22:53:53.416Z,15.78
2022-08-30T22:56:22.254Z,15.72
2022-08-30T22:58:49.069Z,15.64
2022-08-30T23:01:28.436Z,15.68
2022-08-30T23:03:55.878Z,15.61
2022-08-30T23:06:22.732Z,15.67
2022-08-30T23:08:49.362Z,15.64
2022-08-30T23:11:16.968Z,15.61
2022-08-30T23:13:43.770Z,15.50
2022-08-30T23:16:12.205Z,15.54
2022-08-30T23:18:42.052Z,15.48
2022-08-30T23:21:14.213Z,15.46
2022-08-30T23:23:41.041Z,15.44
2022-08-30T23:26:07.376Z,15.41
2022-08-30T23:28:33.722Z,15.39
2022-08-30T23:31:10.513Z,15.35
2022-08-30T23:33:36.856Z,15.34
2022-08-30T23:36:11.108Z,15.27
2022-08-30T23:38:38.057Z,15.30
2022-08-30T23:41:04.487Z,15.26
2022-08-30T23:43:31.066Z,15.13
2022-08-30T23:45:57.712Z,15.21
2022-08-30T23:48:24.184Z,15.09
2022-08-30T23:50:50.552Z,15.22
2022-08-30T23:53:17.041Z,15.19
2022-08-30T23:55:43.516Z,15.09
2022-08-30T23:58:09.851Z,15.11
